Предлагаем Вашему вниманию английскую версию страницы: AUTOTAF.ME 27217 - aviation weather forecast Bezhetsk

AUTOTAF 27217 - авиапрогноз Бежецк

Сегодня рассвет 03:43 UTC, восход солнца 04:23 UTC,
местный полдень 09:17 UTC, заход солнца 14:11 UTC,
наступление темноты 14:52 UTC.

Краткий прогноз 27217 на 9 часов

AUTOTAF.ME 27217 212000Z 2121/2206 VRB02MPS 3000 BR OVC001      
  FM220600 16004MPS 5000 BR OVC002

Детальный прогноз 27217 на 24 часа

AUTOTAF.ME 27217 212000Z 2121/2221 VRB02MPS 3000 BR OVC001 TX07/2221Z TN01/2121Z    
  FM220600 16004MPS 5000 BR OVC002 
  FM220900 16005G10MPS 5000 BR OVC006  
  FM221500 15006G13MPS 3000 -RA BR OVC002 
  BECMG 2216/2218 OVC001  
  FM222100 18004MPS 2000 RA BR OVC001

Подробный табличный прогноз

Время (UTC) miniAUTOTAF на 3 ч WX FZLVL
M AGL
ICE TURB Т
(°С)
Тd
(°С)
f(%) QNH
(гПа)
WIND/T
18 VRB02MPS 2000 BR BKN002 BR 150 MOD FL20/FL30 1 0 97 1018 ...
21 VRB02MPS 3000 BR OVC001 BR 180 FBL FL20/FL110 1 1 97 1016 ...
22.10.2020
00 VRB02MPS 3000 BR OVC001 BR 240 MOD FL170/FL190 2 1 97 1017 ...
03 15004MPS 3000 BR OVC001 BR 480 FBL FL40/FL120 2 2 97 1015 ...
06 16004MPS 5000 BR OVC002 BR 540 FBL FL40/FL110 3 2 94 1015 ...
09 16005G10MPS 5000 BR OVC006 BR 900 MOD FL70/FL190 4 2 91 1013 ...
12 15005G10MPS 5000 BR OVC005 BR 1050 MOD FL150/FL160 5 3 90 1011 ...
15 15006G13MPS 3000 -RA BR OVC002 -RA BR 1500 MOD FL70/FL170 5 4 95 1006 ...
18 16005G11MPS 3000 -RA BR OVC001 -RA BR 1800 MOD FL150/FL170 6 5 96 1003 ...
21 18004MPS 2000 RA BR OVC001 RA BR 1950 MOD FL150/FL170 7 6 96 999 ...
23.10.2020
00 20004MPS 2000 RA BR OVC001 RA BR 1950 MOD FL110/FL120 MOD SFC/FL30 9 8 97 997 ...
03 26007G15MPS 9999 -RA OVC006 -RA 2100 MOD FL110/FL120 MOD SFC/FL30 11 9 88 997 ...
06 27009G16MPS 9999 OVC009 1950 MOD FL110/FL120 MOD SFC/FL30 10 7 81 998 ...
09 25005G13MPS 9999 OVC009 1500 FBL FL70/FL120 MOD SFC/FL40 11 8 85 999 ...
12 25005G12MPS 9999 -SHRA BKN009 OVC010CB -SHRA 1500 MOD FL90/FL110 MOD SFC/FL30 11 8 81 1000 ...
15 22004MPS 5000 VCSH BR BKN009 BKN010CB VCSH BR 1650 MOD FL150/FL160 MOD SFC/FL30 9 7 89 998 ...


Широта 57.8°, долгота 36.7°, высота 141 м абс.
Средняя высота рельефа местности 142 м абс.
Прогнозы обновляются четыре раза в сутки: в 02, 08, 14, 20 ч всемирного времени.


Выбрать прогноз по другой модели Бежецк
Онлайн-сводка гроз по Бежецк (для РФ и ближнего зарубежья)
Карта фактических гроз в окрестностях Бежецк
Динамические прогностические карты (ventusky.com)
Прогностическая карта высоты нижней границы облаков по Бежецк (windy.com)
Выбрать другой город

Прогноз предназначен для личного научно-познавательного использования частными лицами
и не предназначен для принятия важных решений и выполнения реальных полётов воздушных судов

При копировании или ином использовании любых материалов данного сайта ссылка на © meteocenter.asia обязательна.

0.83/1.3